Time;durP1;ratioP1;P1;durP2;ratioP2;P2;SDS_P1;SDS_P2;PMS_P1;PMS_P2;Temp;Humidity;BMP_temperature;BMP_pressure;BME280_temperature;BME280_humidity;BME280_pressure;Samples;Min_cycle;Max_cycle;Signal;HPM_P1;HPM_P2
2022/02/11 00:00:01;;;;;;;13.48;4.32;;;5.10;99.90;;;;;;5052985;28;20227;-75
2022/02/11 00:07:55;;;;;;;13.18;3.50;;;5.10;99.90;;;;;;5060923;28;20775;-77
2022/02/11 00:10:25;;;;;;;12.30;3.83;;;5.00;99.90;;;;;;5056790;28;20402;-76
2022/02/11 00:13:11;;;;;;;10.60;3.47;;;5.00;99.90;;;;;;5044815;28;20246;-76
2022/02/11 00:15:42;;;;;;;8.02;2.90;;;5.00;99.90;;;;;;5049836;28;20201;-76
2022/02/11 00:18:12;;;;;;;8.18;2.90;;;4.90;99.90;;;;;;5053001;28;20211;-77
2022/02/11 00:20:39;;;;;;;12.27;3.03;;;4.90;99.90;;;;;;5055137;28;20263;-76
2022/02/11 00:23:07;;;;;;;12.23;2.97;;;4.80;99.90;;;;;;5062912;28;20227;-74
2022/02/11 00:25:40;;;;;;;10.70;2.95;;;4.80;99.90;;;;;;5078116;28;20310;-75
2022/02/11 00:31:15;;;;;;;12.57;2.70;;;4.70;99.90;;;;;;5026546;28;20220;-76
2022/02/11 00:33:44;;;;;;;12.98;3.28;;;4.70;99.90;;;;;;5039791;28;20299;-75
2022/02/11 00:36:13;;;;;;;11.73;4.00;;;4.70;99.90;;;;;;5036459;28;20626;-75
2022/02/11 00:38:57;;;;;;;10.68;3.45;;;4.60;99.90;;;;;;5046608;28;20196;-75
2022/02/11 01:04:07;;;;;;;28.92;4.38;;;4.50;99.90;;;;;;5012876;28;20231;-76
2022/02/11 01:07:02;;;;;;;8.30;3.70;;;4.40;99.90;;;;;;5025712;28;20232;-75
2022/02/11 01:09:29;;;;;;;8.73;2.30;;;4.40;99.90;;;;;;5034536;28;20283;-74
2022/02/11 01:11:59;;;;;;;12.57;3.25;;;4.50;99.90;;;;;;5034692;28;20748;-75
2022/02/11 01:14:33;;;;;;;5.55;2.58;;;4.40;99.90;;;;;;5034839;28;20239;-77
2022/02/11 01:17:09;;;;;;;10.15;2.78;;;4.40;99.90;;;;;;5042282;28;20707;-75
2022/02/11 01:19:44;;;;;;;7.30;3.30;;;4.40;99.90;;;;;;5038980;28;20286;-75
2022/02/11 01:22:20;;;;;;;13.38;3.33;;;4.40;99.90;;;;;;5033489;28;20227;-76
2022/02/11 01:25:05;;;;;;;9.88;3.33;;;4.30;99.90;;;;;;5035036;28;20284;-76
2022/02/11 01:27:38;;;;;;;12.15;3.05;;;4.30;99.90;;;;;;5051113;28;20624;-74
2022/02/11 01:30:50;;;;;;;7.45;2.10;;;4.30;99.90;;;;;;5049449;28;20203;-76
2022/02/11 01:36:09;;;;;;;9.20;2.53;;;4.30;99.90;;;;;;5035660;28;20198;-75
2022/02/11 01:38:48;;;;;;;11.18;2.80;;;4.30;99.90;;;;;;5046993;28;20258;-75
2022/02/11 01:47:27;;;;;;;13.23;3.70;;;4.30;99.90;;;;;;5029351;28;20302;-75
2022/02/11 01:52:50;;;;;;;9.13;4.07;;;4.30;99.90;;;;;;5039974;28;20220;-75
2022/02/11 01:55:36;;;;;;;6.60;3.65;;;4.40;99.90;;;;;;5044570;28;20200;-76
2022/02/11 02:01:12;;;;;;;12.80;4.07;;;4.40;99.90;;;;;;5023064;28;20197;-75
2022/02/11 02:08:47;;;;;;;11.00;4.00;;;4.30;99.90;;;;;;5029865;28;20689;-74
2022/02/11 02:23:40;;;;;;;13.63;4.20;;;4.10;99.90;;;;;;5047715;28;20286;-74
2022/02/11 02:26:19;;;;;;;9.57;3.33;;;4.10;99.90;;;;;;5039264;28;20287;-74
2022/02/11 02:35:17;;;;;;;6.93;3.60;;;4.10;99.90;;;;;;5034900;28;20566;-75
2022/02/11 02:57:18;;;;;;;15.90;5.68;;;4.10;99.90;;;;;;5040686;28;20222;-74
2022/02/11 03:00:06;;;;;;;12.80;5.50;;;4.10;99.90;;;;;;5035718;28;20662;-74
2022/02/11 03:48:36;;;;;;;6.60;4.90;;;4.10;99.90;;;;;;5052822;28;20575;-74
2022/02/11 03:50:23;;;;;;;16.80;4.80;;;4.00;99.90;;;;;;5037807;28;20732;-75
2022/02/11 03:53:30;;;;;;;13.23;4.50;;;3.90;99.90;;;;;;5036360;28;20349;-74
2022/02/11 04:21:56;;;;;;;19.83;4.75;;;4.10;99.90;;;;;;5032263;28;20239;-74
2022/02/11 04:55:03;;;;;;;8.57;5.43;;;4.50;99.90;;;;;;5035508;28;20250;-75
2022/02/11 05:00:17;;;;;;;15.60;6.55;;;4.50;99.90;;;;;;5035430;28;20654;-74
2022/02/11 05:02:46;;;;;;;20.70;6.50;;;4.40;99.90;;;;;;5039826;28;20224;-73
2022/02/11 05:05:14;;;;;;;15.30;8.85;;;4.50;99.90;;;;;;5041931;28;20231;-76
2022/02/11 05:07:41;;;;;;;12.13;6.85;;;4.50;99.90;;;;;;5037374;28;20216;-74
2022/02/11 05:10:13;;;;;;;14.45;7.55;;;4.50;99.90;;;;;;5045584;28;20279;-74
2022/02/11 05:12:43;;;;;;;15.98;8.18;;;4.50;99.90;;;;;;5038971;28;20614;-74
2022/02/11 05:15:10;;;;;;;15.32;7.25;;;4.50;99.90;;;;;;5044315;28;20209;-74
2022/02/11 05:17:38;;;;;;;16.50;9.27;;;4.40;99.90;;;;;;5039160;28;20367;-74
2022/02/11 05:20:06;;;;;;;14.65;9.85;;;4.40;99.90;;;;;;5041938;28;20203;-76
2022/02/11 05:22:34;;;;;;;15.38;8.05;;;4.40;99.90;;;;;;5049487;28;20310;-76
2022/02/11 05:25:01;;;;;;;16.42;9.93;;;4.40;99.90;;;;;;5040279;28;20207;-74
2022/02/11 05:27:29;;;;;;;18.42;9.57;;;4.40;99.90;;;;;;5039797;28;20212;-74
2022/02/11 05:29:57;;;;;;;19.55;10.50;;;4.30;99.90;;;;;;5043554;28;20242;-74
2022/02/11 05:32:25;;;;;;;17.95;8.90;;;4.30;99.90;;;;;;5038622;28;20255;-76
2022/02/11 05:34:52;;;;;;;14.10;9.82;;;4.40;99.90;;;;;;5037643;28;20247;-75
2022/02/11 05:37:20;;;;;;;11.20;9.60;;;4.40;99.90;;;;;;5035256;28;20192;-75
2022/02/11 05:39:47;;;;;;;17.33;10.65;;;4.50;99.90;;;;;;5049259;28;20658;-74
2022/02/11 05:42:14;;;;;;;16.23;10.18;;;4.60;99.90;;;;;;5039791;28;20793;-74
2022/02/11 05:44:41;;;;;;;18.55;12.82;;;4.60;99.90;;;;;;5050078;28;20256;-74
2022/02/11 05:47:10;;;;;;;19.08;12.75;;;4.60;99.90;;;;;;5057840;28;20686;-74
2022/02/11 05:49:37;;;;;;;14.23;10.63;;;4.60;99.90;;;;;;5040610;28;20204;-75
2022/02/11 05:52:06;;;;;;;18.45;11.93;;;4.50;99.90;;;;;;5048334;28;20262;-74
2022/02/11 05:54:33;;;;;;;14.93;11.25;;;4.50;99.90;;;;;;5063144;28;20227;-73
2022/02/11 05:57:01;;;;;;;15.38;11.18;;;4.50;99.90;;;;;;5052970;28;20290;-75
2022/02/11 05:59:28;;;;;;;17.13;12.27;;;4.60;99.90;;;;;;5040546;28;20627;-75
2022/02/11 06:01:55;;;;;;;21.15;10.82;;;4.60;99.90;;;;;;5042250;28;20302;-75
2022/02/11 06:04:24;;;;;;;16.33;11.60;;;4.60;99.90;;;;;;5038816;28;20196;-74
2022/02/11 06:06:52;;;;;;;16.30;10.23;;;4.60;99.90;;;;;;5045631;28;20227;-75
2022/02/11 06:09:20;;;;;;;14.15;10.38;;;4.70;99.90;;;;;;5039490;28;20677;-76
2022/02/11 06:12:21;;;;;;;13.05;10.18;;;4.70;99.90;;;;;;5037472;28;20224;-75
2022/02/11 06:14:48;;;;;;;15.07;10.55;;;4.70;99.90;;;;;;5035069;28;20286;-74
2022/02/11 06:17:38;;;;;;;18.88;9.80;;;4.70;99.90;;;;;;5035211;28;20235;-75
2022/02/11 06:20:08;;;;;;;12.13;8.77;;;4.70;99.90;;;;;;5034182;28;20204;-75
2022/02/11 06:22:36;;;;;;;13.13;8.88;;;4.80;99.90;;;;;;5033518;28;20266;-74
2022/02/11 06:25:04;;;;;;;11.98;7.78;;;4.70;99.90;;;;;;5034025;28;20208;-78
2022/02/11 06:27:31;;;;;;;14.82;8.35;;;4.80;99.90;;;;;;5036276;28;20213;-78
2022/02/11 06:29:58;;;;;;;13.75;7.95;;;4.80;99.90;;;;;;5063869;28;20188;-74
2022/02/11 06:32:26;;;;;;;18.23;9.38;;;4.80;99.90;;;;;;5053390;28;20448;-74
2022/02/11 06:34:55;;;;;;;20.98;8.98;;;4.80;99.90;;;;;;5052582;28;20184;-74
2022/02/11 06:37:24;;;;;;;11.45;7.93;;;4.80;99.90;;;;;;5053817;28;20192;-74
2022/02/11 06:39:51;;;;;;;11.95;7.85;;;4.80;99.90;;;;;;5057146;28;20396;-73
2022/02/11 06:42:18;;;;;;;13.18;7.35;;;4.90;99.90;;;;;;5062632;28;20211;-73
2022/02/11 06:44:45;;;;;;;18.13;9.63;;;5.00;99.90;;;;;;5056738;28;20231;-74
2022/02/11 06:47:13;;;;;;;13.07;8.23;;;5.00;99.90;;;;;;5055759;28;20209;-73
2022/02/11 06:49:39;;;;;;;10.35;7.07;;;5.10;99.90;;;;;;5048214;28;20203;-73
2022/02/11 06:52:08;;;;;;;15.95;7.30;;;5.10;99.90;;;;;;5054511;28;20306;-71
2022/02/11 06:54:37;;;;;;;11.40;6.63;;;5.10;99.90;;;;;;5055860;28;20475;-73
2022/02/11 06:57:04;;;;;;;13.73;7.65;;;5.10;99.90;;;;;;5066122;28;20199;-74
2022/02/11 06:59:31;;;;;;;14.07;7.20;;;5.00;99.90;;;;;;5047926;28;20269;-74
2022/02/11 07:01:59;;;;;;;18.95;8.75;;;5.20;99.90;;;;;;5054519;28;20263;-74
2022/02/11 07:04:26;;;;;;;9.25;7.15;;;5.00;99.90;;;;;;5061134;28;20232;-73
2022/02/11 07:06:53;;;;;;;9.27;7.10;;;5.00;99.90;;;;;;5060293;28;20268;-72
2022/02/11 07:09:21;;;;;;;13.10;7.32;;;5.10;99.90;;;;;;5056992;28;20188;-74
2022/02/11 07:11:49;;;;;;;9.65;6.65;;;5.10;99.90;;;;;;5049598;28;20433;-74
2022/02/11 07:14:16;;;;;;;13.30;7.60;;;5.10;99.90;;;;;;5054727;28;20199;-75
2022/02/11 07:16:44;;;;;;;11.52;7.25;;;5.10;99.90;;;;;;5051741;28;20263;-74
2022/02/11 07:19:11;;;;;;;17.60;6.88;;;5.10;99.90;;;;;;5054248;28;20404;-75
2022/02/11 07:21:40;;;;;;;14.68;7.75;;;5.20;99.90;;;;;;5058746;28;20286;-74
2022/02/11 07:24:07;;;;;;;13.15;6.63;;;5.20;99.90;;;;;;5060863;28;20259;-73
2022/02/11 07:26:35;;;;;;;12.10;8.38;;;5.20;99.90;;;;;;5062539;28;20195;-75
2022/02/11 07:29:04;;;;;;;15.18;6.35;;;5.20;99.90;;;;;;5052923;28;20439;-75
2022/02/11 07:31:31;;;;;;;15.80;7.47;;;5.30;99.90;;;;;;5047431;28;20197;-75
2022/02/11 07:33:58;;;;;;;10.93;6.28;;;5.30;99.90;;;;;;5054790;28;20188;-73
2022/02/11 07:36:26;;;;;;;8.95;6.25;;;5.30;99.90;;;;;;5065901;28;20275;-74
2022/02/11 07:38:53;;;;;;;14.68;5.30;;;5.30;99.90;;;;;;5056243;28;20188;-76
2022/02/11 07:41:20;;;;;;;10.13;7.22;;;5.30;99.90;;;;;;5053635;28;20191;-74
2022/02/11 07:43:47;;;;;;;14.30;5.45;;;5.40;99.90;;;;;;5050388;28;20189;-75
2022/02/11 07:46:16;;;;;;;5.47;3.22;;;5.40;99.90;;;;;;5048370;28;20194;-74
2022/02/11 07:48:43;;;;;;;7.25;3.70;;;5.50;99.90;;;;;;5054074;28;20243;-82
2022/02/11 07:51:10;;;;;;;5.22;2.75;;;5.50;99.90;;;;;;5060020;28;20183;-78
2022/02/11 07:53:38;;;;;;;6.78;2.92;;;5.50;99.90;;;;;;5050425;28;20262;-75
2022/02/11 07:56:05;;;;;;;5.32;3.28;;;5.50;99.90;;;;;;5054910;28;20249;-77
2022/02/11 07:58:32;;;;;;;8.90;2.22;;;5.50;99.90;;;;;;5048653;28;20243;-78
2022/02/11 08:01:00;;;;;;;7.60;4.13;;;5.50;99.90;;;;;;5052837;28;20330;-77
2022/02/11 08:03:29;;;;;;;10.55;2.40;;;5.50;99.90;;;;;;5051996;28;20246;-76
2022/02/11 08:05:56;;;;;;;6.05;2.70;;;5.60;99.90;;;;;;5049408;28;20190;-73
2022/02/11 08:08:27;;;;;;;6.57;2.63;;;5.70;99.90;;;;;;5050186;28;20548;-75
2022/02/11 08:10:54;;;;;;;9.13;3.05;;;5.70;99.90;;;;;;5047911;28;20406;-75
2022/02/11 08:13:21;;;;;;;6.25;2.00;;;5.80;99.90;;;;;;5047754;28;20206;-76
2022/02/11 08:15:48;;;;;;;3.08;1.77;;;5.90;99.90;;;;;;5048285;28;20228;-76
2022/02/11 08:18:15;;;;;;;16.52;3.00;;;6.00;99.90;;;;;;5064012;28;20206;-78
2022/02/11 08:20:43;;;;;;;8.90;2.83;;;6.00;99.90;;;;;;5057840;28;20202;-73
2022/02/11 08:23:10;;;;;;;15.65;3.83;;;6.00;99.90;;;;;;5062846;28;20228;-75
2022/02/11 08:25:38;;;;;;;7.95;3.10;;;6.10;99.90;;;;;;5051370;28;20243;-75
2022/02/11 08:28:06;;;;;;;11.43;2.25;;;6.10;99.90;;;;;;5048941;28;20246;-75
2022/02/11 08:30:33;;;;;;;4.65;2.03;;;6.30;99.90;;;;;;5060145;28;20192;-74
2022/02/11 08:33:01;;;;;;;12.80;2.65;;;6.50;99.90;;;;;;5055208;28;20225;-75
2022/02/11 08:35:28;;;;;;;6.07;2.15;;;6.80;99.90;;;;;;5057638;28;20211;-73
2022/02/11 08:37:56;;;;;;;6.30;1.58;;;7.10;99.90;;;;;;5050301;28;20299;-74
2022/02/11 08:40:23;;;;;;;7.40;1.77;;;7.00;99.90;;;;;;5047744;28;20278;-75
2022/02/11 08:42:51;;;;;;;7.88;2.35;;;7.30;99.90;;;;;;5051143;28;20214;-75
2022/02/11 08:45:19;;;;;;;3.22;1.75;;;7.50;99.90;;;;;;5048934;28;20502;-73
2022/02/11 08:47:46;;;;;;;3.92;1.80;;;7.40;99.90;;;;;;5058064;28;20266;-74
2022/02/11 08:50:18;;;;;;;10.02;1.73;;;7.50;99.90;;;;;;5053507;28;20660;-75
2022/02/11 08:52:45;;;;;;;3.95;2.03;;;7.60;99.90;;;;;;5054997;28;20208;-74
2022/02/11 08:55:15;;;;;;;5.82;2.78;;;7.60;99.90;;;;;;5049537;28;20254;-74
2022/02/11 08:57:47;;;;;;;3.75;1.67;;;7.60;99.90;;;;;;5055667;28;20285;-74
2022/02/11 09:00:16;;;;;;;3.55;3.00;;;7.70;99.90;;;;;;5046894;28;20702;-73
2022/02/11 09:02:43;;;;;;;8.02;3.05;;;7.60;99.90;;;;;;5051815;28;20215;-75
2022/02/11 09:05:12;;;;;;;4.88;2.92;;;7.50;99.90;;;;;;5052211;28;20200;-74
2022/02/11 09:07:39;;;;;;;14.75;4.32;;;7.50;99.90;;;;;;5049820;28;20212;-73
2022/02/11 09:10:07;;;;;;;6.15;4.40;;;7.60;99.90;;;;;;5046853;28;20196;-73
2022/02/11 09:12:36;;;;;;;7.05;4.47;;;7.80;99.90;;;;;;5045774;28;20250;-75
2022/02/11 09:15:03;;;;;;;8.07;3.30;;;7.70;99.90;;;;;;5047472;28;20187;-75
2022/02/11 09:17:30;;;;;;;5.60;2.95;;;7.50;99.90;;;;;;5047227;28;20249;-73
2022/02/11 09:19:57;;;;;;;3.05;1.63;;;7.50;99.90;;;;;;5048341;28;20192;-75
2022/02/11 09:22:24;;;;;;;3.92;1.25;;;7.40;99.90;;;;;;5048444;28;20219;-76
2022/02/11 09:24:54;;;;;;;4.03;1.33;;;7.40;99.90;;;;;;5058903;28;20217;-75
2022/02/11 09:27:22;;;;;;;6.90;1.60;;;7.40;99.90;;;;;;5059494;28;20454;-76
2022/02/11 09:29:51;;;;;;;8.32;1.52;;;7.40;99.90;;;;;;5049380;28;20194;-75
2022/02/11 09:32:20;;;;;;;2.03;1.10;;;7.40;99.90;;;;;;5051546;28;20503;-76
2022/02/11 09:34:47;;;;;;;4.32;1.15;;;7.50;99.90;;;;;;5058795;28;20237;-76
2022/02/11 09:37:14;;;;;;;5.50;1.65;;;7.60;99.90;;;;;;5056170;28;20407;-76
2022/02/11 09:39:41;;;;;;;3.40;1.58;;;7.60;99.90;;;;;;5054375;28;20209;-75
2022/02/11 09:42:09;;;;;;;4.22;1.30;;;7.60;99.90;;;;;;5054044;28;20215;-75
2022/02/11 09:44:36;;;;;;;5.00;2.10;;;7.70;99.90;;;;;;5049915;28;20214;-76
2022/02/11 09:47:05;;;;;;;5.40;1.90;;;7.80;99.90;;;;;;5055449;28;20207;-76
2022/02/11 09:49:32;;;;;;;5.95;2.30;;;7.90;99.90;;;;;;5050588;28;20285;-76
2022/02/11 09:52:00;;;;;;;2.60;2.35;;;7.90;99.90;;;;;;5056941;28;20217;-77
2022/02/11 09:54:27;;;;;;;16.63;3.08;;;7.80;99.90;;;;;;5050866;28;20253;-77
2022/02/11 09:56:54;;;;;;;6.05;1.98;;;7.90;99.90;;;;;;5054904;28;20183;-76
2022/02/11 09:59:21;;;;;;;2.55;1.45;;;7.80;99.90;;;;;;5051640;28;20415;-77
2022/02/11 10:01:49;;;;;;;7.47;2.70;;;7.60;99.90;;;;;;5055101;28;20396;-75
2022/02/11 10:04:20;;;;;;;9.55;2.20;;;7.80;99.90;;;;;;5057292;28;20244;-76
2022/02/11 10:06:48;;;;;;;4.05;2.08;;;7.70;99.90;;;;;;5053612;28;20214;-77
2022/02/11 10:09:16;;;;;;;11.45;2.72;;;7.70;99.90;;;;;;5047683;28;20223;-78
2022/02/11 10:11:44;;;;;;;12.57;7.10;;;7.70;99.90;;;;;;5048655;28;20211;-76
2022/02/11 10:14:24;;;;;;;7.30;2.25;;;7.70;99.90;;;;;;5047614;28;20197;-78
2022/02/11 10:17:00;;;;;;;4.50;2.58;;;7.70;99.90;;;;;;5047441;28;20454;-77
2022/02/11 10:19:44;;;;;;;6.40;2.00;;;7.70;99.90;;;;;;5054665;28;20217;-78
2022/02/11 10:22:15;;;;;;;3.35;1.73;;;7.60;99.90;;;;;;5062400;28;20239;-79
2022/02/11 10:24:42;;;;;;;2.47;1.50;;;7.60;99.90;;;;;;5056694;28;20213;-77
2022/02/11 10:27:21;;;;;;;5.43;2.30;;;7.60;99.90;;;;;;5047552;28;20218;-77
2022/02/11 10:29:50;;;;;;;5.05;2.90;;;7.70;99.90;;;;;;5057582;28;20227;-78
2022/02/11 10:32:17;;;;;;;2.80;2.35;;;7.60;99.90;;;;;;5059784;28;20268;-77
2022/02/11 10:34:54;;;;;;;5.68;3.13;;;7.50;99.90;;;;;;5061775;28;20241;-77
2022/02/11 10:37:21;;;;;;;2.78;2.58;;;7.40;99.90;;;;;;5045543;28;20208;-77
2022/02/11 10:39:57;;;;;;;3.78;3.10;;;7.40;99.90;;;;;;5047048;28;20298;-77
2022/02/11 10:42:42;;;;;;;4.38;3.25;;;7.30;99.90;;;;;;5050057;28;20206;-76
2022/02/11 10:45:31;;;;;;;5.30;3.10;;;7.30;99.90;;;;;;5059361;28;20198;-76
2022/02/11 10:48:12;;;;;;;6.00;2.97;;;7.40;99.90;;;;;;5045876;28;20246;-75
2022/02/11 10:50:41;;;;;;;2.97;2.55;;;7.40;99.90;;;;;;5045624;28;20196;-76
2022/02/11 10:53:09;;;;;;;8.65;4.30;;;7.40;99.90;;;;;;5045619;28;20207;-77
2022/02/11 10:55:48;;;;;;;4.07;3.20;;;7.40;99.90;;;;;;5053717;28;20249;-75
2022/02/11 10:58:18;;;;;;;3.67;3.00;;;7.30;99.90;;;;;;5050947;28;20432;-78
2022/02/11 11:00:46;;;;;;;3.83;3.47;;;7.20;99.90;;;;;;5052536;28;20194;-78
2022/02/11 11:03:14;;;;;;;4.05;2.67;;;7.20;99.90;;;;;;5060810;28;20384;-77
2022/02/11 11:05:44;;;;;;;5.32;4.05;;;7.30;99.90;;;;;;5063241;28;20187;-74
2022/02/11 11:08:13;;;;;;;5.15;3.50;;;7.30;99.90;;;;;;5046032;28;20215;-76
2022/02/11 11:10:43;;;;;;;4.55;3.58;;;7.30;99.90;;;;;;5058553;28;20249;-75
2022/02/11 11:13:12;;;;;;;8.10;4.47;;;7.40;99.90;;;;;;5051696;28;20215;-75
2022/02/11 11:15:43;;;;;;;6.32;4.55;;;7.60;99.90;;;;;;5050312;28;20227;-76
2022/02/11 11:18:12;;;;;;;5.00;4.50;;;7.70;99.90;;;;;;5046160;28;20187;-74
2022/02/11 11:20:40;;;;;;;6.03;4.57;;;7.80;99.90;;;;;;5046717;28;20262;-76
2022/02/11 11:23:19;;;;;;;3.20;2.90;;;8.00;99.90;;;;;;5046317;28;20431;-76
2022/02/11 11:25:55;;;;;;;3.45;3.15;;;8.00;99.90;;;;;;5056135;28;20219;-76
2022/02/11 11:28:45;;;;;;;4.50;3.85;;;8.00;99.90;;;;;;5048189;28;20238;-75
2022/02/11 11:31:18;;;;;;;5.88;5.20;;;8.00;99.90;;;;;;5055640;28;20218;-75
2022/02/11 11:33:46;;;;;;;3.95;3.53;;;8.10;99.90;;;;;;5049404;28;20184;-78
2022/02/11 11:36:43;;;;;;;3.63;3.33;;;8.10;99.90;;;;;;5048457;28;20195;-77
2022/02/11 11:39:12;;;;;;;4.00;3.45;;;8.20;99.90;;;;;;5058939;28;20229;-76
2022/02/11 11:41:44;;;;;;;4.70;4.30;;;8.10;99.90;;;;;;5054727;28;20268;-78
2022/02/11 11:44:19;;;;;;;3.40;3.10;;;8.10;99.90;;;;;;5051298;28;20215;-75
2022/02/11 11:46:50;;;;;;;5.18;4.68;;;8.00;99.90;;;;;;5047887;28;20236;-76
2022/02/11 11:49:20;;;;;;;8.40;4.45;;;8.10;99.90;;;;;;5052904;28;20223;-78
2022/02/11 11:52:05;;;;;;;4.15;3.40;;;8.00;99.90;;;;;;5058231;28;20446;-79
2022/02/11 11:54:35;;;;;;;4.05;3.50;;;7.90;99.90;;;;;;5047525;28;20435;-77
2022/02/11 11:57:04;;;;;;;4.82;3.58;;;7.90;99.90;;;;;;5050178;28;20192;-77
2022/02/11 11:59:33;;;;;;;4.00;3.60;;;7.80;99.90;;;;;;5046240;28;20202;-77
2022/02/11 12:02:02;;;;;;;4.00;3.70;;;7.80;99.90;;;;;;5059497;28;20207;-77
2022/02/11 12:04:30;;;;;;;4.28;3.10;;;7.80;99.90;;;;;;5052235;28;20210;-78
2022/02/11 12:06:59;;;;;;;4.65;3.65;;;7.70;99.90;;;;;;5060328;28;20203;-77
2022/02/11 12:09:30;;;;;;;4.45;4.00;;;7.60;99.90;;;;;;5052421;28;20215;-77
2022/02/11 12:12:00;;;;;;;7.45;3.38;;;7.60;99.90;;;;;;5052316;28;20216;-76
2022/02/11 12:14:28;;;;;;;4.20;3.13;;;7.60;99.90;;;;;;5058583;28;20184;-75
2022/02/11 12:16:56;;;;;;;6.82;4.32;;;7.50;99.90;;;;;;5048588;28;20201;-76
2022/02/11 12:19:24;;;;;;;5.07;3.25;;;7.30;99.90;;;;;;5048747;28;20405;-75
2022/02/11 12:21:51;;;;;;;2.97;2.13;;;7.20;99.90;;;;;;5053232;28;20241;-74
2022/02/11 12:27:23;;;;;;;2.90;2.28;;;6.90;99.90;;;;;;5034994;28;20180;-77
2022/02/11 12:29:52;;;;;;;3.97;1.40;;;6.90;99.90;;;;;;5050925;28;20211;-76
2022/02/11 12:32:20;;;;;;;3.38;1.00;;;7.00;99.90;;;;;;5053312;28;20400;-74
2022/02/11 12:34:49;;;;;;;4.13;1.10;;;7.20;99.90;;;;;;5051499;28;20244;-76
2022/02/11 12:37:16;;;;;;;2.95;1.10;;;7.20;99.90;;;;;;5062372;28;20285;-77
2022/02/11 12:39:43;;;;;;;2.53;1.33;;;7.30;99.90;;;;;;5054442;28;20200;-77
2022/02/11 12:42:11;;;;;;;2.83;1.55;;;7.30;99.90;;;;;;5046823;28;20208;-76
2022/02/11 12:44:42;;;;;;;5.35;1.15;;;7.40;99.90;;;;;;5046191;28;21565;-75
2022/02/11 12:47:09;;;;;;;9.02;1.90;;;7.50;99.90;;;;;;5046892;28;20253;-77
2022/02/11 12:49:45;;;;;;;9.00;1.85;;;7.70;99.90;;;;;;5052800;28;20265;-74
2022/02/11 12:52:18;;;;;;;7.70;1.90;;;7.70;99.90;;;;;;5060572;28;20206;-75
2022/02/11 12:55:02;;;;;;;10.65;4.47;;;7.60;99.90;;;;;;5057445;28;20395;-76
2022/02/11 12:57:32;;;;;;;4.60;1.50;;;7.50;99.90;;;;;;5046349;28;20191;-74
2022/02/11 13:00:00;;;;;;;10.90;2.42;;;7.60;99.90;;;;;;5058229;28;20309;-77
2022/02/11 13:02:28;;;;;;;4.13;1.92;;;7.70;99.90;;;;;;5063119;28;20226;-76
2022/02/11 13:05:23;;;;;;;7.13;2.53;;;7.70;99.90;;;;;;5049439;28;20188;-75
2022/02/11 13:07:51;;;;;;;7.15;2.70;;;7.60;99.90;;;;;;5038321;28;20195;-77
2022/02/11 13:10:20;;;;;;;5.78;1.98;;;7.60;99.90;;;;;;5047333;28;20224;-76
2022/02/11 13:12:50;;;;;;;11.77;2.50;;;7.60;99.90;;;;;;5047645;28;20219;-76
2022/02/11 13:15:19;;;;;;;9.38;1.55;;;7.60;99.90;;;;;;5048205;28;20207;-78
2022/02/11 13:17:47;;;;;;;10.20;2.67;;;7.60;99.90;;;;;;5047494;28;20392;-77
2022/02/11 13:20:18;;;;;;;8.02;2.20;;;7.50;99.90;;;;;;5047369;28;20538;-76
2022/02/11 13:22:47;;;;;;;11.00;2.00;;;7.50;99.90;;;;;;5053933;28;20286;-76
2022/02/11 13:25:16;;;;;;;7.40;2.10;;;7.60;99.90;;;;;;5056416;28;20199;-76
2022/02/11 13:27:56;;;;;;;8.73;2.55;;;7.50;99.90;;;;;;5055098;28;20191;-79
2022/02/11 13:30:26;;;;;;;10.85;2.65;;;7.50;99.90;;;;;;5054185;28;20327;-77
2022/02/11 13:32:54;;;;;;;11.02;2.17;;;7.50;99.90;;;;;;5057962;28;20249;-77
2022/02/11 13:35:22;;;;;;;9.98;2.95;;;7.40;99.90;;;;;;5055290;28;20228;-76
2022/02/11 13:37:51;;;;;;;10.63;2.30;;;7.40;99.90;;;;;;5065460;28;20195;-78
2022/02/11 13:40:22;;;;;;;8.98;2.83;;;7.50;99.90;;;;;;5053885;28;20193;-74
2022/02/11 13:43:03;;;;;;;9.57;3.10;;;7.50;99.90;;;;;;5048073;28;20231;-75
2022/02/11 13:45:31;;;;;;;7.25;2.63;;;7.60;99.90;;;;;;5046916;28;20217;-75
2022/02/11 13:48:07;;;;;;;12.80;2.38;;;7.70;99.90;;;;;;5047204;28;20198;-76
2022/02/11 13:50:49;;;;;;;15.18;2.97;;;7.70;99.90;;;;;;5055745;28;20245;-74
2022/02/11 13:53:27;;;;;;;4.25;2.25;;;7.70;99.90;;;;;;5047542;28;20226;-76
2022/02/11 13:55:54;;;;;;;8.18;2.20;;;7.60;99.90;;;;;;5051350;28;20202;-76
2022/02/11 13:58:23;;;;;;;7.03;2.03;;;7.60;99.90;;;;;;5057929;28;20253;-73
2022/02/11 14:00:50;;;;;;;8.93;3.00;;;7.50;99.90;;;;;;5045812;28;20237;-75
2022/02/11 14:03:25;;;;;;;6.63;2.45;;;7.50;99.90;;;;;;5058685;28;20240;-76
2022/02/11 14:05:54;;;;;;;10.48;1.90;;;7.70;99.90;;;;;;5052090;28;20266;-76
2022/02/11 14:08:23;;;;;;;13.20;1.90;;;7.60;99.90;;;;;;5052773;28;20182;-75
2022/02/11 14:11:09;;;;;;;4.22;1.73;;;7.60;99.90;;;;;;5046857;28;20202;-75
2022/02/11 14:13:38;;;;;;;7.10;2.65;;;7.70;99.90;;;;;;5045854;28;20344;-76
2022/02/11 14:16:05;;;;;;;9.57;1.85;;;7.60;99.90;;;;;;5046327;28;20193;-76
2022/02/11 14:18:32;;;;;;;5.85;1.60;;;7.60;99.90;;;;;;5046540;28;20314;-75
2022/02/11 14:20:59;;;;;;;8.32;1.88;;;7.60;99.80;;;;;;5046115;28;20282;-76
2022/02/11 14:23:26;;;;;;;6.28;1.48;;;7.50;98.00;;;;;;5046584;28;20415;-74
2022/02/11 14:25:55;;;;;;;5.75;2.47;;;7.30;98.20;;;;;;5055043;28;20230;-76
2022/02/11 14:28:25;;;;;;;6.75;1.55;;;7.30;98.50;;;;;;5054825;28;20198;-74
2022/02/11 14:30:54;;;;;;;3.83;1.42;;;7.20;98.40;;;;;;5061668;28;20230;-75
2022/02/11 14:33:22;;;;;;;8.73;2.13;;;7.10;98.60;;;;;;5051160;28;20257;-77
2022/02/11 14:35:49;;;;;;;5.75;2.15;;;7.20;99.40;;;;;;5053514;28;20303;-77
2022/02/11 14:38:16;;;;;;;9.80;1.65;;;7.20;99.30;;;;;;5051375;28;20194;-76
2022/02/11 14:41:46;;;;;;;4.22;2.22;;;7.10;99.50;;;;;;5066360;28;20222;-77
2022/02/11 14:43:31;;;;;;;5.10;2.30;;;7.10;99.60;;;;;;5048911;28;20447;-75
2022/02/11 14:45:59;;;;;;;4.80;2.20;;;7.10;99.90;;;;;;5059736;28;20434;-75
2022/02/11 14:48:27;;;;;;;17.20;2.05;;;7.00;99.40;;;;;;5066607;28;20191;-75
2022/02/11 14:50:55;;;;;;;8.40;3.25;;;6.90;99.50;;;;;;5054176;28;20239;-75
2022/02/11 14:53:22;;;;;;;8.35;2.05;;;6.90;99.90;;;;;;5055093;28;20374;-74
2022/02/11 14:55:49;;;;;;;5.70;2.45;;;6.80;99.90;;;;;;5054372;28;20270;-74
2022/02/11 14:58:16;;;;;;;6.47;1.60;;;6.80;99.90;;;;;;5046027;28;20191;-75
2022/02/11 15:00:44;;;;;;;4.85;2.03;;;6.80;99.90;;;;;;5045438;28;20230;-74
2022/02/11 15:03:12;;;;;;;8.82;2.15;;;6.70;99.90;;;;;;5045915;28;20260;-74
2022/02/11 15:05:39;;;;;;;5.40;2.67;;;6.80;99.90;;;;;;5045697;28;20269;-75
2022/02/11 15:08:06;;;;;;;9.20;2.20;;;6.70;99.90;;;;;;5051086;28;20200;-76
2022/02/11 15:10:33;;;;;;;4.90;1.73;;;6.70;99.90;;;;;;5050809;28;20240;-76
2022/02/11 15:13:03;;;;;;;4.95;1.83;;;6.70;99.90;;;;;;5051648;28;20243;-76
2022/02/11 15:15:32;;;;;;;5.50;1.80;;;6.70;99.90;;;;;;5057173;28;20201;-76
2022/02/11 15:17:59;;;;;;;7.72;2.20;;;6.70;99.90;;;;;;5058215;28;20243;-74
2022/02/11 15:20:27;;;;;;;3.95;1.50;;;6.70;99.90;;;;;;5060220;28;20383;-76
2022/02/11 15:22:55;;;;;;;8.25;2.15;;;6.70;99.90;;;;;;5066220;28;20343;-75
2022/02/11 15:25:22;;;;;;;7.57;1.77;;;6.60;99.90;;;;;;5067148;28;20186;-77
2022/02/11 15:27:49;;;;;;;19.65;3.08;;;6.60;99.90;;;;;;5063581;28;20185;-76
2022/02/11 15:30:16;;;;;;;5.05;2.00;;;6.60;99.90;;;;;;5065171;28;20245;-75
2022/02/11 15:32:43;;;;;;;5.70;2.67;;;6.60;99.90;;;;;;5054354;28;20215;-76
2022/02/11 15:35:10;;;;;;;4.88;2.05;;;6.60;99.90;;;;;;5051446;28;20221;-75
2022/02/11 15:37:39;;;;;;;11.93;2.72;;;6.60;99.90;;;;;;5057978;28;20238;-77
2022/02/11 15:40:07;;;;;;;10.38;3.40;;;6.60;99.90;;;;;;5056232;28;20352;-77
2022/02/11 15:42:34;;;;;;;7.25;1.63;;;6.50;99.90;;;;;;5048004;28;20206;-76
2022/02/11 15:45:01;;;;;;;10.07;2.13;;;6.50;99.90;;;;;;5056830;28;20299;-75
2022/02/11 15:47:29;;;;;;;4.97;2.25;;;6.40;99.90;;;;;;5058469;28;20235;-75
2022/02/11 15:49:56;;;;;;;5.82;1.95;;;6.40;99.90;;;;;;5046020;28;20217;-74
2022/02/11 15:52:23;;;;;;;5.55;1.85;;;6.30;99.90;;;;;;5053225;28;20229;-76
2022/02/11 15:54:51;;;;;;;5.78;2.28;;;6.20;99.90;;;;;;5048876;28;20190;-77
2022/02/11 15:57:19;;;;;;;12.55;3.95;;;6.20;99.90;;;;;;5054624;28;20201;-75
2022/02/11 15:59:47;;;;;;;16.50;2.75;;;6.10;99.90;;;;;;5051755;28;20184;-76
2022/02/11 16:02:13;;;;;;;7.22;2.45;;;6.00;99.90;;;;;;5064881;28;20220;-76
2022/02/11 16:04:40;;;;;;;6.55;2.00;;;6.00;99.90;;;;;;5051475;28;20643;-74
2022/02/11 16:07:07;;;;;;;17.83;2.85;;;6.00;99.90;;;;;;5055011;28;20421;-74
2022/02/11 16:09:34;;;;;;;7.28;2.42;;;5.90;99.90;;;;;;5061219;28;20462;-76
2022/02/11 16:12:05;;;;;;;5.47;2.55;;;5.90;99.90;;;;;;5054484;28;20460;-74
2022/02/11 16:14:32;;;;;;;7.07;3.25;;;5.90;99.90;;;;;;5049191;28;20401;-77
2022/02/11 16:17:00;;;;;;;15.32;4.88;;;5.90;99.90;;;;;;5056468;28;20367;-75
2022/02/11 16:19:28;;;;;;;8.80;2.15;;;5.80;99.90;;;;;;5046936;28;20195;-75
2022/02/11 16:21:55;;;;;;;9.15;3.50;;;5.80;99.90;;;;;;5050352;28;20241;-75
2022/02/11 16:24:22;;;;;;;7.40;2.22;;;5.80;99.90;;;;;;5049930;28;20431;-73